NWS1834 LTAI-ULLI
Flight info
| Callsign | NWS1834 |
|---|---|
| Flight time | N/A |
| Altitude | 38000 |
| Route | ADBEL UR55 MUT UA285 SELVI/N0479F390 UA285 SIV UW706 TBN UN37 SARPI DCT LU N37 LURIS/K0883F390 DCT AMKOL/K0887F400 B945 UP N50 NUDKO T561 ODATI T875 GENPA GENPA1B |
| Aircraft | B772/H-SDE2E3FGHIJ5LORVWXY/LB1D1 |
Departure
| Time | N/A |
|---|---|
| Airport | Antalya International Airport (LTAI) |
Arrival
| Time | 2026-05-01 13:37 |
|---|---|
| Airport | Pulkovo Airport (ULLI) |
| Time | Latitude | Longitude | Altitude | Speed | Heading |
|---|---|---|---|---|---|
| 2026-05-01 13:14 | 58.58380 | 32.66174 | 40184 ft | 450 kts | 324° |
| 2026-05-01 13:15 | 58.67727 | 32.51165 | 39966 ft | 435 kts | 324° |
| 2026-05-01 13:16 | 58.74796 | 32.39735 | 35355 ft | 421 kts | 326° |
| 2026-05-01 13:17 | 58.81520 | 32.28899 | 28725 ft | 420 kts | 327° |
| 2026-05-01 13:17 | 58.83732 | 32.25319 | 26633 ft | 410 kts | 326° |
| 2026-05-01 13:18 | 58.87969 | 32.18427 | 22941 ft | 389 kts | 326° |
| 2026-05-01 13:18 | 58.90023 | 32.15080 | 20993 ft | 380 kts | 326° |
| 2026-05-01 13:18 | 58.92021 | 32.11820 | 19510 ft | 368 kts | 325° |
| 2026-05-01 13:18 | 58.93863 | 32.08791 | 19029 ft | 335 kts | 326° |
| 2026-05-01 13:19 | 58.95663 | 32.05858 | 18518 ft | 342 kts | 326° |
| 2026-05-01 13:19 | 58.97530 | 32.02826 | 17921 ft | 360 kts | 325° |
| 2026-05-01 13:19 | 59.01441 | 31.96405 | 16621 ft | 367 kts | 324° |
| 2026-05-01 13:20 | 59.03372 | 31.93206 | 16016 ft | 363 kts | 324° |
| 2026-05-01 13:20 | 59.05288 | 31.90031 | 15425 ft | 360 kts | 324° |
| 2026-05-01 13:20 | 59.07182 | 31.86900 | 14839 ft | 356 kts | 324° |
| 2026-05-01 13:21 | 59.10930 | 31.80684 | 13656 ft | 351 kts | 322° |
| 2026-05-01 13:21 | 59.12710 | 31.77441 | 13051 ft | 350 kts | 320° |
| 2026-05-01 13:21 | 59.14441 | 31.74144 | 12470 ft | 347 kts | 320° |
| 2026-05-01 13:21 | 59.16149 | 31.70860 | 11904 ft | 344 kts | 319° |
| 2026-05-01 13:22 | 59.17847 | 31.67601 | 11345 ft | 342 kts | 319° |
| 2026-05-01 13:22 | 59.19515 | 31.64407 | 10931 ft | 335 kts | 319° |
| 2026-05-01 13:22 | 59.21156 | 31.61264 | 10642 ft | 330 kts | 319° |
| 2026-05-01 13:22 | 59.22805 | 31.58120 | 10246 ft | 333 kts | 319° |
| 2026-05-01 13:23 | 59.24471 | 31.54947 | 9941 ft | 333 kts | 319° |
| 2026-05-01 13:23 | 59.26109 | 31.51824 | 9883 ft | 325 kts | 319° |
| 2026-05-01 13:23 | 59.27709 | 31.48778 | 9836 ft | 317 kts | 319° |
| 2026-05-01 13:23 | 59.29286 | 31.45832 | 9788 ft | 310 kts | 320° |
| 2026-05-01 13:24 | 59.30840 | 31.42988 | 9740 ft | 302 kts | 320° |
| 2026-05-01 13:24 | 59.32373 | 31.40239 | 9688 ft | 296 kts | 321° |
| 2026-05-01 13:24 | 59.33889 | 31.37585 | 9634 ft | 289 kts | 322° |
| 2026-05-01 13:25 | 59.36821 | 31.32625 | 9375 ft | 267 kts | 323° |
| 2026-05-01 13:25 | 59.38180 | 31.30254 | 9064 ft | 256 kts | 319° |
| 2026-05-01 13:25 | 59.39406 | 31.27773 | 8512 ft | 251 kts | 317° |
| 2026-05-01 13:25 | 59.40622 | 31.25237 | 8085 ft | 253 kts | 316° |
| 2026-05-01 13:26 | 59.41410 | 31.23591 | 7752 ft | 247 kts | 316° |
| 2026-05-01 13:26 | 59.42578 | 31.21161 | 7427 ft | 244 kts | 316° |
| 2026-05-01 13:26 | 59.43742 | 31.18749 | 7122 ft | 243 kts | 316° |
| 2026-05-01 13:26 | 59.44901 | 31.16346 | 6820 ft | 242 kts | 316° |
| 2026-05-01 13:27 | 59.46057 | 31.13953 | 6534 ft | 240 kts | 315° |
| 2026-05-01 13:27 | 59.47206 | 31.11578 | 6228 ft | 239 kts | 315° |
| 2026-05-01 13:27 | 59.49486 | 31.06883 | 5654 ft | 235 kts | 315° |
| 2026-05-01 13:28 | 59.51793 | 31.02130 | 5143 ft | 244 kts | 313° |
| 2026-05-01 13:28 | 59.52913 | 30.99638 | 5006 ft | 243 kts | 311° |
| 2026-05-01 13:29 | 59.55143 | 30.94530 | 4727 ft | 247 kts | 311° |
| 2026-05-01 13:29 | 59.57373 | 30.89399 | 4453 ft | 245 kts | 311° |
| 2026-05-01 13:30 | 59.61806 | 30.79170 | 3852 ft | 247 kts | 311° |
| 2026-05-01 13:31 | 59.63295 | 30.75737 | 3646 ft | 246 kts | 310° |
| 2026-05-01 13:31 | 59.66621 | 30.68072 | 3244 ft | 242 kts | 312° |
| 2026-05-01 13:32 | 59.69232 | 30.64167 | 2968 ft | 229 kts | 326° |
| 2026-05-01 13:33 | 59.72708 | 30.59508 | 2624 ft | 183 kts | 325° |
| 2026-05-01 13:33 | 59.74638 | 30.56562 | 2478 ft | 170 kts | 303° |
| 2026-05-01 13:34 | 59.75445 | 30.52236 | 2253 ft | 167 kts | 290° |
| 2026-05-01 13:34 | 59.76131 | 30.47898 | 2087 ft | 166 kts | 288° |
| 2026-05-01 13:35 | 59.76786 | 30.43491 | 1742 ft | 162 kts | 288° |
| 2026-05-01 13:35 | 59.77090 | 30.41407 | 1518 ft | 150 kts | 288° |
| 2026-05-01 13:35 | 59.78555 | 30.38529 | 1003 ft | 146 kts | 316° |
| 2026-05-01 13:36 | 59.79099 | 30.37018 | 773 ft | 134 kts | 288° |
| 2026-05-01 13:36 | 59.79366 | 30.35287 | 663 ft | 131 kts | 285° |
| 2026-05-01 13:36 | 59.79861 | 30.31976 | 269 ft | 118 kts | 286° |
| 2026-05-01 13:37 | 59.80088 | 30.30443 | 105 ft | 116 kts | 287° |
| 2026-05-01 13:37 | 59.80300 | 30.29037 | 86 ft | 92 kts | 287° |
| 2026-05-01 13:37 | 59.80432 | 30.28163 | 87 ft | 43 kts | 286° |
| 2026-05-01 13:37 | 59.80425 | 30.27736 | 86 ft | 19 kts | 252° |
| 2026-05-01 13:38 | 59.80375 | 30.27429 | 90 ft | 9 kts | 252° |
| 2026-05-01 13:38 | 59.80356 | 30.27311 | 89 ft | 9 kts | 253° |
| 2026-05-01 13:38 | 59.80356 | 30.27137 | 87 ft | 14 kts | 280° |
| 2026-05-01 13:39 | 59.80381 | 30.26952 | 89 ft | 11 kts | 286° |
| 2026-05-01 13:39 | 59.80387 | 30.26913 | 90 ft | 3 kts | 285° |
| 2026-05-01 13:39 | 59.80370 | 30.26827 | 89 ft | 8 kts | 219° |
| 2026-05-01 13:39 | 59.80319 | 30.26778 | 88 ft | 8 kts | 199° |
| 2026-05-01 13:40 | 59.80264 | 30.26744 | 89 ft | 8 kts | 197° |
| 2026-05-01 13:40 | 59.80210 | 30.26712 | 87 ft | 8 kts | 196° |
| 2026-05-01 13:40 | 59.80156 | 30.26680 | 89 ft | 8 kts | 196° |
| 2026-05-01 13:40 | 59.80101 | 30.26650 | 92 ft | 8 kts | 189° |
| 2026-05-01 13:41 | 59.80059 | 30.26694 | 92 ft | 7 kts | 127° |
| 2026-05-01 13:41 | 59.80041 | 30.26767 | 92 ft | 5 kts | 111° |
| 2026-05-01 13:41 | 59.80034 | 30.26808 | 90 ft | 1 kts | 108° |
| 2026-05-01 13:41 | 59.80034 | 30.26811 | 88 ft | 0 kts | 108° |